CMA CGM Columba — 2DBC9 — position and weather

sailwx.info

Track history (hours):
 
Tides and Currents Weather Stations Pressure Air Temp Water Temp Dewpoint Dewpoint Depression Visibility Wind Speed Wind Dir Waves Ship Positions

CMA CGM Columba

Last reported at 2015-Aug-27 18:19 UTC. Time now 2015-Aug-30 16:01 UTC.
Position N 22°34' E 114°18'.

Length 363 m; draft 11.4 m.

Type: Ship (hazmat cat A). MMSI: 235077448.

Date/timePositionNaut miles runAvg speedWind from/ knotsBaromVisibWave heightAir tempDewpointWater temp
2015-Aug-27 18:19N 22°34' E 114°18'1411.6
2015-Aug-27 17:08N 22°25' E 114°29'915.5
2015-Aug-27 16:33N 22°16' E 114°29'1514.8
2015-Aug-27 15:32N 22°07' E 114°16'1312.9
2015-Aug-27 14:32N 22°16' E 114°06'4 1.4
2015-Aug-27 11:33N 22°20' E 114°07'0 0.0
2015-Aug-27 10:24N 22°20' E 114°07'0 0.0
2015-Aug-27 07:33N 22°20' E 114°07'0 0.0
2015-Aug-27 06:09N 22°20' E 114°07'0 0.0
2015-Aug-27 05:27N 22°20' E 114°07'0 0.0
2015-Aug-26 23:21N 22°20' E 114°07'0 0.0
2015-Aug-26 22:30N 22°20' E 114°07'0 0.0
2015-Aug-26 21:06N 22°20' E 114°07'0 0.0
2015-Aug-26 17:27N 22°20' E 114°07'0 0.0
2015-Aug-26 16:33N 22°20' E 114°07'0 0.4
2015-Aug-26 15:33N 22°20' E 114°07'19 4.5
2015-Aug-26 11:22N 22°06' E 113°54'5 6.4
2015-Aug-26 10:32N 22°10' E 113°50'1110.9
2015-Aug-26 09:33N 22°20' E 113°48'1312.1
2015-Aug-26 08:28N 22°33' E 113°44'3 0.2
2015-Aug-25 14:29N 22°36' E 113°43'1314.2
2015-Aug-25 13:33N 22°23' E 113°46'1110.8
2015-Aug-25 12:33N 22°13' E 113°50'2912.7
2015-Aug-25 10:18N 22°06' E 114°20'1720.5
2015-Aug-25 09:27N 22°08' E 114°38'23319.6
2015-Aug-24 21:33N 24°03' E 118°18'1615.5
2015-Aug-24 20:33N 24°18' E 118°12'1111.1
2015-Aug-24 19:32N 24°26' E 118°03'1 1.3
2015-Aug-24 18:28N 24°27' E 118°02'0 0.0
2015-Aug-24 16:22N 24°27' E 118°02'0 0.0
2015-Aug-24 14:28N 24°27' E 118°02'0 0.0
2015-Aug-24 12:16N 24°27' E 118°02'0 0.0
2015-Aug-24 11:28N 24°26' E 118°02'0 0.0
2015-Aug-24 05:28N 24°26' E 118°02'0 0.0
2015-Aug-24 04:22N 24°27' E 118°02'0 0.0
2015-Aug-24 03:28N 24°27' E 118°02'0 0.0
2015-Aug-24 01:28N 24°27' E 118°02'0 0.0
2015-Aug-23 20:22N 24°26' E 118°02'0 0.0
2015-Aug-23 19:16N 24°27' E 118°02'0 0.0
2015-Aug-23 18:16N 24°27' E 118°02'0 0.0
2015-Aug-23 17:28N 24°27' E 118°02'0 0.0
2015-Aug-23 15:22N 24°27' E 118°02'0 0.0
2015-Aug-23 13:28N 24°27' E 118°02'0 0.0
2015-Aug-23 10:10N 24°26' E 118°02'0 0.0
2015-Aug-23 06:28N 24°27' E 118°02'0 0.0
2015-Aug-23 05:10N 24°26' E 118°02'0 0.0
2015-Aug-23 04:28N 24°27' E 118°02'0 0.0
2015-Aug-23 02:28N 24°27' E 118°02'0 0.0
2015-Aug-23 01:28N 24°26' E 118°02'0 0.0
2015-Aug-22 19:28N 24°27' E 118°02'0 0.0
2015-Aug-22 16:16N 24°27' E 118°02'0 0.6
2015-Aug-22 15:32N 24°26' E 118°02'9 8.8
2015-Aug-22 14:29N 24°21' E 118°10'8 8.9
2015-Aug-22 13:33N 24°14' E 118°16'9 6.1
2015-Aug-22 12:04N 24°12' E 118°25'24 9.6
2015-Aug-22 09:33N 24°19' E 118°50'2211.2
2015-Aug-22 07:33N 24°33' E 119°09'50 8.3
2015-Aug-22 01:30N 25°19' E 119°31'14 1.9
2015-Aug-21 18:05N 25°25' E 119°17'0 0.0
2015-Aug-21 17:11N 25°25' E 119°17'0 0.0
2015-Aug-21 10:29N 25°25' E 119°17'0 0.0
2015-Aug-21 09:32N 25°25' E 119°17'5 4.8
2015-Aug-21 08:33N 25°22' E 119°21'1313.2
2015-Aug-21 07:33N 25°18' E 119°35'5 0.3
2015-Aug-20 13:21N 25°17' E 119°40'0 0.1
2015-Aug-20 12:21N 25°17' E 119°40'0 0.0
2015-Aug-20 09:27N 25°17' E 119°40'0 0.1
2015-Aug-20 08:27N 25°17' E 119°40'0 0.0
2015-Aug-20 07:15N 25°17' E 119°40'0 0.1
2015-Aug-20 05:33N 25°17' E 119°40'0 0.0
2015-Aug-20 04:15N 25°17' E 119°40'0 0.0
2015-Aug-20 03:33N 25°17' E 119°40'0 0.2
2015-Aug-20 02:06N 25°17' E 119°40'3 5.7
2015-Aug-20 01:30N 25°14' E 119°43'9 9.1
2015-Aug-20 00:29N 25°07' E 119°49'84 9.2
2015-Aug-19 15:20N 23°43' E 119°57'  
Track history (hours):
 
Tides and Currents Weather Stations Pressure Air Temp Water Temp Dewpoint Dewpoint Depression Visibility Wind Speed Wind Dir Waves Ship Positions

CMA CGM Columba

Last reported at 2015-Aug-27 18:19 UTC. Time now 2015-Aug-30 16:01 UTC.
Position N 22°34' E 114°18'.

Length 363 m; draft 11.4 m.

Type: Ship (hazmat cat A). MMSI: 235077448.

Date/timePositionNaut miles runAvg speedWind from/ knotsBaromVisibWave heightAir tempDewpointWater temp
2015-Aug-27 18:19N 22°34' E 114°18'1411.6
2015-Aug-27 17:08N 22°25' E 114°29'915.5
2015-Aug-27 16:33N 22°16' E 114°29'1514.8
2015-Aug-27 15:32N 22°07' E 114°16'1312.9
2015-Aug-27 14:32N 22°16' E 114°06'4 1.4
2015-Aug-27 11:33N 22°20' E 114°07'0 0.0
2015-Aug-27 10:24N 22°20' E 114°07'0 0.0
2015-Aug-27 07:33N 22°20' E 114°07'0 0.0
2015-Aug-27 06:09N 22°20' E 114°07'0 0.0
2015-Aug-27 05:27N 22°20' E 114°07'0 0.0
2015-Aug-26 23:21N 22°20' E 114°07'0 0.0
2015-Aug-26 22:30N 22°20' E 114°07'0 0.0
2015-Aug-26 21:06N 22°20' E 114°07'0 0.0
2015-Aug-26 17:27N 22°20' E 114°07'0 0.0
2015-Aug-26 16:33N 22°20' E 114°07'0 0.4
2015-Aug-26 15:33N 22°20' E 114°07'19 4.5
2015-Aug-26 11:22N 22°06' E 113°54'5 6.4
2015-Aug-26 10:32N 22°10' E 113°50'1110.9
2015-Aug-26 09:33N 22°20' E 113°48'1312.1
2015-Aug-26 08:28N 22°33' E 113°44'3 0.2
2015-Aug-25 14:29N 22°36' E 113°43'1314.2
2015-Aug-25 13:33N 22°23' E 113°46'1110.8
2015-Aug-25 12:33N 22°13' E 113°50'2912.7
2015-Aug-25 10:18N 22°06' E 114°20'1720.5
2015-Aug-25 09:27N 22°08' E 114°38'23319.6
2015-Aug-24 21:33N 24°03' E 118°18'1615.5
2015-Aug-24 20:33N 24°18' E 118°12'1111.1
2015-Aug-24 19:32N 24°26' E 118°03'1 1.3
2015-Aug-24 18:28N 24°27' E 118°02'0 0.0
2015-Aug-24 16:22N 24°27' E 118°02'0 0.0
2015-Aug-24 14:28N 24°27' E 118°02'0 0.0
2015-Aug-24 12:16N 24°27' E 118°02'0 0.0
2015-Aug-24 11:28N 24°26' E 118°02'0 0.0
2015-Aug-24 05:28N 24°26' E 118°02'0 0.0
2015-Aug-24 04:22N 24°27' E 118°02'0 0.0
2015-Aug-24 03:28N 24°27' E 118°02'0 0.0
2015-Aug-24 01:28N 24°27' E 118°02'0 0.0
2015-Aug-23 20:22N 24°26' E 118°02'0 0.0
2015-Aug-23 19:16N 24°27' E 118°02'0 0.0
2015-Aug-23 18:16N 24°27' E 118°02'0 0.0
2015-Aug-23 17:28N 24°27' E 118°02'0 0.0
2015-Aug-23 15:22N 24°27' E 118°02'0 0.0
2015-Aug-23 13:28N 24°27' E 118°02'0 0.0
2015-Aug-23 10:10N 24°26' E 118°02'0 0.0
2015-Aug-23 06:28N 24°27' E 118°02'0 0.0
2015-Aug-23 05:10N 24°26' E 118°02'0 0.0
2015-Aug-23 04:28N 24°27' E 118°02'0 0.0
2015-Aug-23 02:28N 24°27' E 118°02'0 0.0
2015-Aug-23 01:28N 24°26' E 118°02'0 0.0
2015-Aug-22 19:28N 24°27' E 118°02'0 0.0
2015-Aug-22 16:16N 24°27' E 118°02'0 0.6
2015-Aug-22 15:32N 24°26' E 118°02'9 8.8
2015-Aug-22 14:29N 24°21' E 118°10'8 8.9
2015-Aug-22 13:33N 24°14' E 118°16'9 6.1
2015-Aug-22 12:04N 24°12' E 118°25'24 9.6
2015-Aug-22 09:33N 24°19' E 118°50'2211.2
2015-Aug-22 07:33N 24°33' E 119°09'50 8.3
2015-Aug-22 01:30N 25°19' E 119°31'14 1.9
2015-Aug-21 18:05N 25°25' E 119°17'0 0.0
2015-Aug-21 17:11N 25°25' E 119°17'0 0.0
2015-Aug-21 10:29N 25°25' E 119°17'0 0.0
2015-Aug-21 09:32N 25°25' E 119°17'5 4.8
2015-Aug-21 08:33N 25°22' E 119°21'1313.2
2015-Aug-21 07:33N 25°18' E 119°35'5 0.3
2015-Aug-20 13:21N 25°17' E 119°40'0 0.1
2015-Aug-20 12:21N 25°17' E 119°40'0 0.0
2015-Aug-20 09:27N 25°17' E 119°40'0 0.1
2015-Aug-20 08:27N 25°17' E 119°40'0 0.0
2015-Aug-20 07:15N 25°17' E 119°40'0 0.1
2015-Aug-20 05:33N 25°17' E 119°40'0 0.0
2015-Aug-20 04:15N 25°17' E 119°40'0 0.0
2015-Aug-20 03:33N 25°17' E 119°40'0 0.2
2015-Aug-20 02:06N 25°17' E 119°40'3 5.7
2015-Aug-20 01:30N 25°14' E 119°43'9 9.1
2015-Aug-20 00:29N 25°07' E 119°49'84 9.2
2015-Aug-19 15:20N 23°43' E 119°57'  

Dump ship's entire track history